sensor_id;sensor_type;location;lat;lon;timestamp;temperature;humidity
46754;DHT22;32500;50.620;3.400;2023-12-20T00:00:26;16.20;67.50
46754;DHT22;32500;50.620;3.400;2023-12-20T00:02:51;16.20;67.60
46754;DHT22;32500;50.620;3.400;2023-12-20T00:05:17;16.10;67.40
46754;DHT22;32500;50.620;3.400;2023-12-20T00:07:43;16.10;67.40
46754;DHT22;32500;50.620;3.400;2023-12-20T00:10:08;16.10;67.40
46754;DHT22;32500;50.620;3.400;2023-12-20T00:12:34;16.10;67.50
46754;DHT22;32500;50.620;3.400;2023-12-20T00:15:00;16.00;67.40
46754;DHT22;32500;50.620;3.400;2023-12-20T00:17:25;16.00;67.60
46754;DHT22;32500;50.620;3.400;2023-12-20T00:19:51;16.00;67.40
46754;DHT22;32500;50.620;3.400;2023-12-20T00:22:17;16.00;67.60
46754;DHT22;32500;50.620;3.400;2023-12-20T00:24:42;16.00;67.40
46754;DHT22;32500;50.620;3.400;2023-12-20T00:27:08;15.90;67.50
46754;DHT22;32500;50.620;3.400;2023-12-20T00:29:33;15.90;67.70
46754;DHT22;32500;50.620;3.400;2023-12-20T00:31:59;15.90;67.60
46754;DHT22;32500;50.620;3.400;2023-12-20T00:34:25;15.80;67.80
46754;DHT22;32500;50.620;3.400;2023-12-20T00:36:50;15.80;68.40
46754;DHT22;32500;50.620;3.400;2023-12-20T00:39:16;15.80;67.80
46754;DHT22;32500;50.620;3.400;2023-12-20T00:41:41;15.80;67.60
46754;DHT22;32500;50.620;3.400;2023-12-20T00:44:07;15.80;67.60
46754;DHT22;32500;50.620;3.400;2023-12-20T00:46:33;15.70;67.50
46754;DHT22;32500;50.620;3.400;2023-12-20T00:48:58;15.70;67.90
46754;DHT22;32500;50.620;3.400;2023-12-20T00:51:24;15.70;67.80
46754;DHT22;32500;50.620;3.400;2023-12-20T00:53:50;15.70;67.90
46754;DHT22;32500;50.620;3.400;2023-12-20T00:56:20;15.70;67.80
46754;DHT22;32500;50.620;3.400;2023-12-20T00:58:46;15.70;67.90
46754;DHT22;32500;50.620;3.400;2023-12-20T01:01:11;15.60;67.90
46754;DHT22;32500;50.620;3.400;2023-12-20T01:03:38;15.60;68.10
46754;DHT22;32500;50.620;3.400;2023-12-20T01:06:04;15.60;67.90
46754;DHT22;32500;50.620;3.400;2023-12-20T01:08:30;15.60;68.10
46754;DHT22;32500;50.620;3.400;2023-12-20T01:10:56;15.60;67.80
46754;DHT22;32500;50.620;3.400;2023-12-20T01:13:22;15.60;67.80
46754;DHT22;32500;50.620;3.400;2023-12-20T01:15:47;15.60;67.90
46754;DHT22;32500;50.620;3.400;2023-12-20T01:18:14;15.50;67.80
46754;DHT22;32500;50.620;3.400;2023-12-20T01:20:40;15.50;67.80
46754;DHT22;32500;50.620;3.400;2023-12-20T01:23:05;15.50;67.90
46754;DHT22;32500;50.620;3.400;2023-12-20T01:25:31;15.50;67.90
46754;DHT22;32500;50.620;3.400;2023-12-20T01:27:57;15.50;68.00
46754;DHT22;32500;50.620;3.400;2023-12-20T01:30:22;15.50;68.00
46754;DHT22;32500;50.620;3.400;2023-12-20T01:32:48;15.50;68.00
46754;DHT22;32500;50.620;3.400;2023-12-20T01:35:14;15.50;68.00
46754;DHT22;32500;50.620;3.400;2023-12-20T01:37:40;15.40;67.90
46754;DHT22;32500;50.620;3.400;2023-12-20T01:40:06;15.40;67.90
46754;DHT22;32500;50.620;3.400;2023-12-20T01:42:31;15.40;68.00
46754;DHT22;32500;50.620;3.400;2023-12-20T01:44:57;15.40;68.10
46754;DHT22;32500;50.620;3.400;2023-12-20T01:47:23;15.40;68.10
46754;DHT22;32500;50.620;3.400;2023-12-20T01:49:49;15.40;68.10
46754;DHT22;32500;50.620;3.400;2023-12-20T01:52:15;15.40;68.10
46754;DHT22;32500;50.620;3.400;2023-12-20T01:54:42;15.40;68.80
46754;DHT22;32500;50.620;3.400;2023-12-20T01:57:08;15.40;68.10
46754;DHT22;32500;50.620;3.400;2023-12-20T01:59:35;15.40;68.10
46754;DHT22;32500;50.620;3.400;2023-12-20T02:02:01;15.30;68.10
46754;DHT22;32500;50.620;3.400;2023-12-20T02:04:28;15.30;68.10
46754;DHT22;32500;50.620;3.400;2023-12-20T02:06:55;15.30;68.10
46754;DHT22;32500;50.620;3.400;2023-12-20T02:09:22;15.30;68.20
46754;DHT22;32500;50.620;3.400;2023-12-20T02:11:49;15.20;68.10
46754;DHT22;32500;50.620;3.400;2023-12-20T02:14:14;15.20;68.10
46754;DHT22;32500;50.620;3.400;2023-12-20T02:16:40;15.20;68.10
46754;DHT22;32500;50.620;3.400;2023-12-20T02:19:13;15.20;68.10
46754;DHT22;32500;50.620;3.400;2023-12-20T02:21:39;15.20;68.20
46754;DHT22;32500;50.620;3.400;2023-12-20T02:24:04;15.20;68.30
46754;DHT22;32500;50.620;3.400;2023-12-20T02:26:32;15.20;68.20
46754;DHT22;32500;50.620;3.400;2023-12-20T02:28:59;15.10;68.40
46754;DHT22;32500;50.620;3.400;2023-12-20T02:31:25;15.20;68.30
46754;DHT22;32500;50.620;3.400;2023-12-20T02:33:51;15.20;68.20
46754;DHT22;32500;50.620;3.400;2023-12-20T02:36:16;15.10;68.10
46754;DHT22;32500;50.620;3.400;2023-12-20T02:38:42;15.10;68.20
46754;DHT22;32500;50.620;3.400;2023-12-20T02:41:08;15.10;68.20
46754;DHT22;32500;50.620;3.400;2023-12-20T02:43:33;15.10;68.20
46754;DHT22;32500;50.620;3.400;2023-12-20T02:45:59;15.10;68.10
46754;DHT22;32500;50.620;3.400;2023-12-20T02:48:24;15.00;68.20
46754;DHT22;32500;50.620;3.400;2023-12-20T02:50:50;15.00;68.30
46754;DHT22;32500;50.620;3.400;2023-12-20T02:53:16;15.00;68.20
46754;DHT22;32500;50.620;3.400;2023-12-20T02:55:42;15.00;68.30
46754;DHT22;32500;50.620;3.400;2023-12-20T02:58:08;15.00;68.30
46754;DHT22;32500;50.620;3.400;2023-12-20T03:00:33;15.00;68.20
46754;DHT22;32500;50.620;3.400;2023-12-20T03:02:59;15.00;68.20
46754;DHT22;32500;50.620;3.400;2023-12-20T03:05:25;15.00;68.10
46754;DHT22;32500;50.620;3.400;2023-12-20T03:07:51;15.00;68.30
46754;DHT22;32500;50.620;3.400;2023-12-20T03:10:18;14.90;68.30
46754;DHT22;32500;50.620;3.400;2023-12-20T03:12:44;14.90;68.30
46754;DHT22;32500;50.620;3.400;2023-12-20T03:15:10;14.90;68.20
46754;DHT22;32500;50.620;3.400;2023-12-20T03:17:36;14.90;68.20
46754;DHT22;32500;50.620;3.400;2023-12-20T03:20:02;14.90;68.30
46754;DHT22;32500;50.620;3.400;2023-12-20T03:22:28;14.90;68.30
46754;DHT22;32500;50.620;3.400;2023-12-20T03:24:53;14.90;68.30
46754;DHT22;32500;50.620;3.400;2023-12-20T03:27:19;14.80;68.40
46754;DHT22;32500;50.620;3.400;2023-12-20T03:29:45;14.80;68.30
46754;DHT22;32500;50.620;3.400;2023-12-20T03:32:10;14.80;68.30
46754;DHT22;32500;50.620;3.400;2023-12-20T03:34:36;14.80;68.20
46754;DHT22;32500;50.620;3.400;2023-12-20T03:37:02;14.80;68.30
46754;DHT22;32500;50.620;3.400;2023-12-20T03:39:27;14.80;68.30
46754;DHT22;32500;50.620;3.400;2023-12-20T03:41:53;14.80;68.30
46754;DHT22;32500;50.620;3.400;2023-12-20T03:44:19;14.80;68.30
46754;DHT22;32500;50.620;3.400;2023-12-20T03:46:45;14.80;69.10
46754;DHT22;32500;50.620;3.400;2023-12-20T03:49:11;14.80;68.40
46754;DHT22;32500;50.620;3.400;2023-12-20T03:51:37;14.80;68.20
46754;DHT22;32500;50.620;3.400;2023-12-20T03:54:03;14.70;68.30
46754;DHT22;32500;50.620;3.400;2023-12-20T03:56:28;14.70;68.40
46754;DHT22;32500;50.620;3.400;2023-12-20T03:58:54;14.80;68.60
46754;DHT22;32500;50.620;3.400;2023-12-20T04:01:19;14.70;68.60
46754;DHT22;32500;50.620;3.400;2023-12-20T04:03:45;14.70;68.50
46754;DHT22;32500;50.620;3.400;2023-12-20T04:06:17;14.70;68.40
46754;DHT22;32500;50.620;3.400;2023-12-20T04:08:42;14.70;68.50
46754;DHT22;32500;50.620;3.400;2023-12-20T04:11:08;14.70;68.50
46754;DHT22;32500;50.620;3.400;2023-12-20T04:13:34;14.70;68.60
46754;DHT22;32500;50.620;3.400;2023-12-20T04:15:59;14.70;68.70
46754;DHT22;32500;50.620;3.400;2023-12-20T04:18:25;14.60;68.70
46754;DHT22;32500;50.620;3.400;2023-12-20T04:20:51;14.60;68.70
46754;DHT22;32500;50.620;3.400;2023-12-20T04:23:17;14.60;68.80
46754;DHT22;32500;50.620;3.400;2023-12-20T04:25:42;14.60;68.60
46754;DHT22;32500;50.620;3.400;2023-12-20T04:28:08;14.60;69.50
46754;DHT22;32500;50.620;3.400;2023-12-20T04:30:34;14.60;68.80
46754;DHT22;32500;50.620;3.400;2023-12-20T04:33:00;14.60;68.80
46754;DHT22;32500;50.620;3.400;2023-12-20T04:35:26;14.60;69.00
46754;DHT22;32500;50.620;3.400;2023-12-20T04:37:51;14.60;68.90
46754;DHT22;32500;50.620;3.400;2023-12-20T04:40:17;14.60;68.90
46754;DHT22;32500;50.620;3.400;2023-12-20T04:42:43;14.50;68.90
46754;DHT22;32500;50.620;3.400;2023-12-20T04:45:08;14.50;68.90
46754;DHT22;32500;50.620;3.400;2023-12-20T04:47:34;14.50;69.00
46754;DHT22;32500;50.620;3.400;2023-12-20T04:50:01;14.50;69.00
46754;DHT22;32500;50.620;3.400;2023-12-20T04:52:27;14.50;69.00
46754;DHT22;32500;50.620;3.400;2023-12-20T04:54:53;14.50;69.10
46754;DHT22;32500;50.620;3.400;2023-12-20T04:57:18;14.50;69.00
46754;DHT22;32500;50.620;3.400;2023-12-20T04:59:44;14.50;69.00
46754;DHT22;32500;50.620;3.400;2023-12-20T05:02:10;14.50;69.00
46754;DHT22;32500;50.620;3.400;2023-12-20T05:04:35;14.50;69.00
46754;DHT22;32500;50.620;3.400;2023-12-20T05:07:01;14.50;69.00
46754;DHT22;32500;50.620;3.400;2023-12-20T05:09:27;14.40;69.00
46754;DHT22;32500;50.620;3.400;2023-12-20T05:11:52;14.40;69.10
46754;DHT22;32500;50.620;3.400;2023-12-20T05:14:19;14.40;69.10
46754;DHT22;32500;50.620;3.400;2023-12-20T05:16:45;14.40;69.00
46754;DHT22;32500;50.620;3.400;2023-12-20T05:19:10;14.40;69.00
46754;DHT22;32500;50.620;3.400;2023-12-20T05:21:36;14.40;69.00
46754;DHT22;32500;50.620;3.400;2023-12-20T05:24:02;14.40;69.00
46754;DHT22;32500;50.620;3.400;2023-12-20T05:26:27;14.30;69.00
46754;DHT22;32500;50.620;3.400;2023-12-20T05:28:54;14.40;69.20
46754;DHT22;32500;50.620;3.400;2023-12-20T05:31:20;14.40;69.10
46754;DHT22;32500;50.620;3.400;2023-12-20T05:33:46;14.30;69.10
46754;DHT22;32500;50.620;3.400;2023-12-20T05:36:11;14.30;69.20
46754;DHT22;32500;50.620;3.400;2023-12-20T05:38:39;14.30;69.00
46754;DHT22;32500;50.620;3.400;2023-12-20T05:41:04;14.40;69.00
46754;DHT22;32500;50.620;3.400;2023-12-20T05:43:30;14.40;69.30
46754;DHT22;32500;50.620;3.400;2023-12-20T05:45:56;14.40;69.40
46754;DHT22;32500;50.620;3.400;2023-12-20T05:48:21;14.40;69.50
46754;DHT22;32500;50.620;3.400;2023-12-20T05:50:48;14.40;69.20
46754;DHT22;32500;50.620;3.400;2023-12-20T05:53:14;14.40;69.50
46754;DHT22;32500;50.620;3.400;2023-12-20T05:55:40;14.30;69.20
46754;DHT22;32500;50.620;3.400;2023-12-20T05:58:05;14.30;69.50
46754;DHT22;32500;50.620;3.400;2023-12-20T06:00:31;14.30;69.50
46754;DHT22;32500;50.620;3.400;2023-12-20T06:02:57;14.30;69.50
46754;DHT22;32500;50.620;3.400;2023-12-20T06:05:22;14.30;69.60
46754;DHT22;32500;50.620;3.400;2023-12-20T06:07:48;14.30;69.60
46754;DHT22;32500;50.620;3.400;2023-12-20T06:10:16;14.30;69.80
46754;DHT22;32500;50.620;3.400;2023-12-20T06:12:42;14.40;69.80
46754;DHT22;32500;50.620;3.400;2023-12-20T06:15:08;14.40;69.90
46754;DHT22;32500;50.620;3.400;2023-12-20T06:17:33;14.30;69.90
46754;DHT22;32500;50.620;3.400;2023-12-20T06:20:00;14.40;70.00
46754;DHT22;32500;50.620;3.400;2023-12-20T06:22:26;14.40;70.10
46754;DHT22;32500;50.620;3.400;2023-12-20T06:24:52;14.30;70.30
46754;DHT22;32500;50.620;3.400;2023-12-20T06:27:17;14.30;70.40
46754;DHT22;32500;50.620;3.400;2023-12-20T06:29:43;14.30;70.20
46754;DHT22;32500;50.620;3.400;2023-12-20T06:32:10;14.30;70.30
46754;DHT22;32500;50.620;3.400;2023-12-20T06:34:36;14.30;70.50
46754;DHT22;32500;50.620;3.400;2023-12-20T06:37:01;14.20;70.50
46754;DHT22;32500;50.620;3.400;2023-12-20T06:39:27;14.30;70.90
46754;DHT22;32500;50.620;3.400;2023-12-20T06:41:53;14.30;71.10
46754;DHT22;32500;50.620;3.400;2023-12-20T06:44:19;14.30;70.60
46754;DHT22;32500;50.620;3.400;2023-12-20T06:46:44;14.30;70.90
46754;DHT22;32500;50.620;3.400;2023-12-20T06:49:10;14.30;70.90
46754;DHT22;32500;50.620;3.400;2023-12-20T06:51:36;14.20;70.70
46754;DHT22;32500;50.620;3.400;2023-12-20T06:54:01;14.20;70.50
46754;DHT22;32500;50.620;3.400;2023-12-20T06:56:28;14.20;70.80
46754;DHT22;32500;50.620;3.400;2023-12-20T06:58:53;14.20;70.70
46754;DHT22;32500;50.620;3.400;2023-12-20T07:01:19;14.20;70.60
46754;DHT22;32500;50.620;3.400;2023-12-20T07:03:45;14.20;71.40
46754;DHT22;32500;50.620;3.400;2023-12-20T07:06:10;14.20;70.60
46754;DHT22;32500;50.620;3.400;2023-12-20T07:08:36;14.20;70.70
46754;DHT22;32500;50.620;3.400;2023-12-20T07:11:02;14.20;70.50
46754;DHT22;32500;50.620;3.400;2023-12-20T07:13:28;14.20;70.50
46754;DHT22;32500;50.620;3.400;2023-12-20T07:15:53;14.10;70.40
46754;DHT22;32500;50.620;3.400;2023-12-20T07:18:19;14.10;70.40
46754;DHT22;32500;50.620;3.400;2023-12-20T07:20:45;14.10;70.40
46754;DHT22;32500;50.620;3.400;2023-12-20T07:23:10;14.10;70.30
46754;DHT22;32500;50.620;3.400;2023-12-20T07:25:36;14.10;70.30
46754;DHT22;32500;50.620;3.400;2023-12-20T07:28:02;14.10;70.30
46754;DHT22;32500;50.620;3.400;2023-12-20T07:30:28;14.10;70.20
46754;DHT22;32500;50.620;3.400;2023-12-20T07:32:53;14.10;70.20
46754;DHT22;32500;50.620;3.400;2023-12-20T07:35:19;14.10;70.10
46754;DHT22;32500;50.620;3.400;2023-12-20T07:37:45;14.10;70.20
46754;DHT22;32500;50.620;3.400;2023-12-20T07:40:11;14.10;70.10
46754;DHT22;32500;50.620;3.400;2023-12-20T07:42:36;14.10;70.00
46754;DHT22;32500;50.620;3.400;2023-12-20T07:45:03;14.10;69.90
46754;DHT22;32500;50.620;3.400;2023-12-20T07:47:28;14.10;70.00
46754;DHT22;32500;50.620;3.400;2023-12-20T07:49:54;14.10;70.00
46754;DHT22;32500;50.620;3.400;2023-12-20T07:52:20;14.10;69.80
46754;DHT22;32500;50.620;3.400;2023-12-20T07:54:48;14.10;69.80
46754;DHT22;32500;50.620;3.400;2023-12-20T07:57:13;14.10;69.90
46754;DHT22;32500;50.620;3.400;2023-12-20T07:59:39;14.10;69.80
46754;DHT22;32500;50.620;3.400;2023-12-20T08:02:05;14.10;69.90
46754;DHT22;32500;50.620;3.400;2023-12-20T08:04:31;14.10;69.80
46754;DHT22;32500;50.620;3.400;2023-12-20T08:06:56;14.20;69.90
46754;DHT22;32500;50.620;3.400;2023-12-20T08:09:22;14.40;69.10
46754;DHT22;32500;50.620;3.400;2023-12-20T08:11:48;14.60;68.90
46754;DHT22;32500;50.620;3.400;2023-12-20T08:14:15;14.70;69.00
46754;DHT22;32500;50.620;3.400;2023-12-20T08:16:41;14.80;68.50
46754;DHT22;32500;50.620;3.400;2023-12-20T08:19:06;14.90;67.90
46754;DHT22;32500;50.620;3.400;2023-12-20T08:21:32;14.90;67.50
46754;DHT22;32500;50.620;3.400;2023-12-20T08:23:57;15.00;67.30
46754;DHT22;32500;50.620;3.400;2023-12-20T08:26:23;15.00;67.10
46754;DHT22;32500;50.620;3.400;2023-12-20T08:28:50;15.00;66.30
46754;DHT22;32500;50.620;3.400;2023-12-20T08:31:16;15.00;66.40
46754;DHT22;32500;50.620;3.400;2023-12-20T08:33:44;15.00;66.60
46754;DHT22;32500;50.620;3.400;2023-12-20T08:36:09;15.00;66.50
46754;DHT22;32500;50.620;3.400;2023-12-20T08:38:36;15.10;66.40
46754;DHT22;32500;50.620;3.400;2023-12-20T08:41:01;15.10;66.40
46754;DHT22;32500;50.620;3.400;2023-12-20T08:43:28;15.10;66.00
46754;DHT22;32500;50.620;3.400;2023-12-20T08:45:54;15.20;66.50
46754;DHT22;32500;50.620;3.400;2023-12-20T08:48:20;15.20;65.90
46754;DHT22;32500;50.620;3.400;2023-12-20T08:50:45;15.20;65.70
46754;DHT22;32500;50.620;3.400;2023-12-20T08:53:12;15.30;65.80
46754;DHT22;32500;50.620;3.400;2023-12-20T08:55:38;15.20;65.60
46754;DHT22;32500;50.620;3.400;2023-12-20T08:58:03;15.20;65.50
46754;DHT22;32500;50.620;3.400;2023-12-20T09:00:32;15.30;65.90
46754;DHT22;32500;50.620;3.400;2023-12-20T09:02:57;15.30;65.60
46754;DHT22;32500;50.620;3.400;2023-12-20T09:05:23;15.30;65.60
46754;DHT22;32500;50.620;3.400;2023-12-20T09:07:48;15.30;65.60
46754;DHT22;32500;50.620;3.400;2023-12-20T09:10:14;15.30;65.60
46754;DHT22;32500;50.620;3.400;2023-12-20T09:12:40;15.30;65.50
46754;DHT22;32500;50.620;3.400;2023-12-20T09:15:06;15.40;65.50
46754;DHT22;32500;50.620;3.400;2023-12-20T09:17:32;15.40;65.40
46754;DHT22;32500;50.620;3.400;2023-12-20T09:19:58;15.40;65.40
46754;DHT22;32500;50.620;3.400;2023-12-20T09:22:25;15.40;65.30
46754;DHT22;32500;50.620;3.400;2023-12-20T09:24:51;15.40;65.20
46754;DHT22;32500;50.620;3.400;2023-12-20T09:27:17;15.40;65.10
46754;DHT22;32500;50.620;3.400;2023-12-20T09:29:42;15.50;65.20
46754;DHT22;32500;50.620;3.400;2023-12-20T09:32:08;15.40;65.10
46754;DHT22;32500;50.620;3.400;2023-12-20T09:34:34;15.40;65.30
46754;DHT22;32500;50.620;3.400;2023-12-20T09:36:59;15.30;65.40
46754;DHT22;32500;50.620;3.400;2023-12-20T09:39:25;15.30;65.70
46754;DHT22;32500;50.620;3.400;2023-12-20T09:42:00;15.30;65.50
46754;DHT22;32500;50.620;3.400;2023-12-20T09:44:27;15.40;65.50
46754;DHT22;32500;50.620;3.400;2023-12-20T09:46:55;15.40;65.40
46754;DHT22;32500;50.620;3.400;2023-12-20T09:49:21;15.40;65.40
46754;DHT22;32500;50.620;3.400;2023-12-20T09:51:47;15.40;65.30
46754;DHT22;32500;50.620;3.400;2023-12-20T09:54:17;15.40;65.30
46754;DHT22;32500;50.620;3.400;2023-12-20T09:56:46;15.40;65.20
46754;DHT22;32500;50.620;3.400;2023-12-20T09:59:12;15.40;65.10
46754;DHT22;32500;50.620;3.400;2023-12-20T10:01:42;15.40;64.90
46754;DHT22;32500;50.620;3.400;2023-12-20T10:04:09;15.30;65.00
46754;DHT22;32500;50.620;3.400;2023-12-20T10:06:42;15.40;65.10
46754;DHT22;32500;50.620;3.400;2023-12-20T10:09:09;15.50;64.80
46754;DHT22;32500;50.620;3.400;2023-12-20T10:11:36;15.50;64.70
46754;DHT22;32500;50.620;3.400;2023-12-20T10:14:06;15.40;64.70
46754;DHT22;32500;50.620;3.400;2023-12-20T10:16:32;15.50;64.80
46754;DHT22;32500;50.620;3.400;2023-12-20T10:18:58;15.40;64.90
46754;DHT22;32500;50.620;3.400;2023-12-20T10:21:25;15.40;65.00
46754;DHT22;32500;50.620;3.400;2023-12-20T10:23:55;15.50;65.70
46754;DHT22;32500;50.620;3.400;2023-12-20T10:26:25;15.50;65.00
46754;DHT22;32500;50.620;3.400;2023-12-20T10:28:53;15.60;64.60
46754;DHT22;32500;50.620;3.400;2023-12-20T10:31:27;15.60;64.70
46754;DHT22;32500;50.620;3.400;2023-12-20T10:33:53;15.60;64.40
46754;DHT22;32500;50.620;3.400;2023-12-20T10:36:19;15.70;64.40
46754;DHT22;32500;50.620;3.400;2023-12-20T10:38:46;15.70;64.20
46754;DHT22;32500;50.620;3.400;2023-12-20T10:41:14;15.80;63.70
46754;DHT22;32500;50.620;3.400;2023-12-20T10:43:43;15.80;63.70
46754;DHT22;32500;50.620;3.400;2023-12-20T10:46:09;15.80;63.60
46754;DHT22;32500;50.620;3.400;2023-12-20T10:48:35;15.80;63.70
46754;DHT22;32500;50.620;3.400;2023-12-20T10:51:01;15.90;63.40
46754;DHT22;32500;50.620;3.400;2023-12-20T10:53:27;16.00;63.10
46754;DHT22;32500;50.620;3.400;2023-12-20T10:55:55;16.00;62.80
46754;DHT22;32500;50.620;3.400;2023-12-20T10:58:22;16.00;62.70
46754;DHT22;32500;50.620;3.400;2023-12-20T11:00:51;16.10;62.60
46754;DHT22;32500;50.620;3.400;2023-12-20T11:03:20;16.10;62.70
46754;DHT22;32500;50.620;3.400;2023-12-20T11:08:46;16.10;62.60
46754;DHT22;32500;50.620;3.400;2023-12-20T11:11:35;16.10;62.50
46754;DHT22;32500;50.620;3.400;2023-12-20T11:14:08;16.00;62.80
46754;DHT22;32500;50.620;3.400;2023-12-20T11:16:41;16.00;63.30
46754;DHT22;32500;50.620;3.400;2023-12-20T11:19:06;16.10;63.40
46754;DHT22;32500;50.620;3.400;2023-12-20T11:21:33;16.10;63.90
46754;DHT22;32500;50.620;3.400;2023-12-20T11:23:59;16.10;63.90
46754;DHT22;32500;50.620;3.400;2023-12-20T11:26:29;16.10;63.70
46754;DHT22;32500;50.620;3.400;2023-12-20T11:29:33;16.00;63.80
46754;DHT22;32500;50.620;3.400;2023-12-20T11:32:03;16.00;63.10
46754;DHT22;32500;50.620;3.400;2023-12-20T11:34:32;16.00;64.00
46754;DHT22;32500;50.620;3.400;2023-12-20T11:36:59;16.10;64.10
46754;DHT22;32500;50.620;3.400;2023-12-20T11:39:26;16.10;63.90
46754;DHT22;32500;50.620;3.400;2023-12-20T11:41:55;16.10;63.90
46754;DHT22;32500;50.620;3.400;2023-12-20T11:44:22;16.10;63.80
46754;DHT22;32500;50.620;3.400;2023-12-20T11:46:47;16.10;63.80
46754;DHT22;32500;50.620;3.400;2023-12-20T11:49:13;16.10;63.40
46754;DHT22;32500;50.620;3.400;2023-12-20T11:51:42;16.10;63.40
46754;DHT22;32500;50.620;3.400;2023-12-20T11:54:09;16.10;63.50
46754;DHT22;32500;50.620;3.400;2023-12-20T11:56:36;16.10;63.60
46754;DHT22;32500;50.620;3.400;2023-12-20T11:59:03;16.20;63.60
46754;DHT22;32500;50.620;3.400;2023-12-20T12:01:28;16.20;63.00
46754;DHT22;32500;50.620;3.400;2023-12-20T12:04:04;16.10;63.00
46754;DHT22;32500;50.620;3.400;2023-12-20T12:06:30;16.10;63.20
46754;DHT22;32500;50.620;3.400;2023-12-20T12:08:55;16.20;63.20
46754;DHT22;32500;50.620;3.400;2023-12-20T12:11:22;16.20;63.10
46754;DHT22;32500;50.620;3.400;2023-12-20T12:13:48;16.20;62.80
46754;DHT22;32500;50.620;3.400;2023-12-20T12:16:20;16.20;63.50
46754;DHT22;32500;50.620;3.400;2023-12-20T12:18:56;16.20;63.50
46754;DHT22;32500;50.620;3.400;2023-12-20T12:21:22;16.40;63.10
46754;DHT22;32500;50.620;3.400;2023-12-20T12:23:48;16.40;63.40
46754;DHT22;32500;50.620;3.400;2023-12-20T12:26:14;16.40;62.70
46754;DHT22;32500;50.620;3.400;2023-12-20T12:28:43;16.40;62.80
46754;DHT22;32500;50.620;3.400;2023-12-20T12:31:13;16.40;63.10
46754;DHT22;32500;50.620;3.400;2023-12-20T12:33:41;16.40;62.80
46754;DHT22;32500;50.620;3.400;2023-12-20T12:36:07;16.40;62.90
46754;DHT22;32500;50.620;3.400;2023-12-20T12:38:33;16.30;63.00
46754;DHT22;32500;50.620;3.400;2023-12-20T12:41:00;16.40;62.80
46754;DHT22;32500;50.620;3.400;2023-12-20T12:43:26;16.40;62.90
46754;DHT22;32500;50.620;3.400;2023-12-20T12:45:52;16.50;62.70
46754;DHT22;32500;50.620;3.400;2023-12-20T12:48:18;16.40;62.50
46754;DHT22;32500;50.620;3.400;2023-12-20T12:50:45;16.40;62.80
46754;DHT22;32500;50.620;3.400;2023-12-20T12:53:10;16.40;62.70
46754;DHT22;32500;50.620;3.400;2023-12-20T12:55:36;16.40;62.90
46754;DHT22;32500;50.620;3.400;2023-12-20T12:58:01;16.40;63.10
46754;DHT22;32500;50.620;3.400;2023-12-20T13:00:27;16.40;62.90
46754;DHT22;32500;50.620;3.400;2023-12-20T13:02:53;16.40;62.70
46754;DHT22;32500;50.620;3.400;2023-12-20T13:05:19;16.40;62.80
46754;DHT22;32500;50.620;3.400;2023-12-20T13:07:44;16.40;62.60
46754;DHT22;32500;50.620;3.400;2023-12-20T13:10:13;16.40;62.60
46754;DHT22;32500;50.620;3.400;2023-12-20T13:12:42;16.40;62.80
46754;DHT22;32500;50.620;3.400;2023-12-20T13:15:07;16.40;62.60
46754;DHT22;32500;50.620;3.400;2023-12-20T13:17:34;16.40;62.50
46754;DHT22;32500;50.620;3.400;2023-12-20T13:20:00;16.40;62.60
46754;DHT22;32500;50.620;3.400;2023-12-20T13:22:25;16.40;62.60
46754;DHT22;32500;50.620;3.400;2023-12-20T13:24:51;16.50;62.60
46754;DHT22;32500;50.620;3.400;2023-12-20T13:27:16;16.50;62.50
46754;DHT22;32500;50.620;3.400;2023-12-20T13:29:42;16.50;62.70
46754;DHT22;32500;50.620;3.400;2023-12-20T13:32:08;16.50;62.70
46754;DHT22;32500;50.620;3.400;2023-12-20T13:34:33;16.50;62.70
46754;DHT22;32500;50.620;3.400;2023-12-20T13:36:59;16.40;62.80
46754;DHT22;32500;50.620;3.400;2023-12-20T13:39:24;16.40;62.80
46754;DHT22;32500;50.620;3.400;2023-12-20T13:41:51;16.50;62.80
46754;DHT22;32500;50.620;3.400;2023-12-20T13:44:16;16.50;63.40
46754;DHT22;32500;50.620;3.400;2023-12-20T13:46:42;16.50;62.50
46754;DHT22;32500;50.620;3.400;2023-12-20T13:49:08;16.50;62.60
46754;DHT22;32500;50.620;3.400;2023-12-20T13:51:33;16.50;62.60
46754;DHT22;32500;50.620;3.400;2023-12-20T13:53:59;16.50;62.70
46754;DHT22;32500;50.620;3.400;2023-12-20T13:56:25;16.50;62.80
46754;DHT22;32500;50.620;3.400;2023-12-20T13:58:51;16.50;62.80
46754;DHT22;32500;50.620;3.400;2023-12-20T14:01:17;16.50;62.80
46754;DHT22;32500;50.620;3.400;2023-12-20T14:03:43;16.40;62.80
46754;DHT22;32500;50.620;3.400;2023-12-20T14:06:08;16.50;62.30
46754;DHT22;32500;50.620;3.400;2023-12-20T14:08:34;16.50;62.50
46754;DHT22;32500;50.620;3.400;2023-12-20T14:11:01;16.50;62.60
46754;DHT22;32500;50.620;3.400;2023-12-20T14:13:27;16.50;62.70
46754;DHT22;32500;50.620;3.400;2023-12-20T14:15:52;16.50;62.80
46754;DHT22;32500;50.620;3.400;2023-12-20T14:18:19;16.50;62.80
46754;DHT22;32500;50.620;3.400;2023-12-20T14:20:45;16.50;62.80
46754;DHT22;32500;50.620;3.400;2023-12-20T14:23:12;16.50;62.60
46754;DHT22;32500;50.620;3.400;2023-12-20T14:25:41;16.50;62.70
46754;DHT22;32500;50.620;3.400;2023-12-20T14:28:07;16.60;62.30
46754;DHT22;32500;50.620;3.400;2023-12-20T14:30:33;16.60;62.40
46754;DHT22;32500;50.620;3.400;2023-12-20T14:32:59;16.50;62.40
46754;DHT22;32500;50.620;3.400;2023-12-20T14:35:24;16.50;62.50
46754;DHT22;32500;50.620;3.400;2023-12-20T14:37:50;16.50;62.50
46754;DHT22;32500;50.620;3.400;2023-12-20T14:40:16;16.50;62.50
46754;DHT22;32500;50.620;3.400;2023-12-20T14:42:45;16.60;62.50
46754;DHT22;32500;50.620;3.400;2023-12-20T14:45:11;16.60;62.40
46754;DHT22;32500;50.620;3.400;2023-12-20T14:47:38;16.50;62.50
46754;DHT22;32500;50.620;3.400;2023-12-20T14:50:05;16.50;62.40
46754;DHT22;32500;50.620;3.400;2023-12-20T14:52:34;16.60;62.40
46754;DHT22;32500;50.620;3.400;2023-12-20T14:55:01;16.50;62.50
46754;DHT22;32500;50.620;3.400;2023-12-20T14:57:28;16.60;62.60
46754;DHT22;32500;50.620;3.400;2023-12-20T14:59:55;16.50;62.50
46754;DHT22;32500;50.620;3.400;2023-12-20T15:02:21;16.60;62.50
46754;DHT22;32500;50.620;3.400;2023-12-20T15:04:47;16.60;62.50
46754;DHT22;32500;50.620;3.400;2023-12-20T15:07:13;16.50;62.50
46754;DHT22;32500;50.620;3.400;2023-12-20T15:09:38;16.60;62.60
46754;DHT22;32500;50.620;3.400;2023-12-20T15:12:04;16.60;62.70
46754;DHT22;32500;50.620;3.400;2023-12-20T15:14:30;16.60;62.60
46754;DHT22;32500;50.620;3.400;2023-12-20T15:16:56;16.50;62.60
46754;DHT22;32500;50.620;3.400;2023-12-20T15:19:22;16.50;62.60
46754;DHT22;32500;50.620;3.400;2023-12-20T15:21:48;16.60;62.70
46754;DHT22;32500;50.620;3.400;2023-12-20T15:24:14;16.60;62.90
46754;DHT22;32500;50.620;3.400;2023-12-20T15:26:46;16.60;62.20